Time;durP1;ratioP1;P1;durP2;ratioP2;P2;SDS_P1;SDS_P2;PMS_P1;PMS_P2;Temp;Humidity;BMP_temperature;BMP_pressure;BME280_temperature;BME280_humidity;BME280_pressure;Samples;Min_cycle;Max_cycle;Signal;HPM_P1;HPM_P2
2022/01/04 00:01:38;;;;;;;0.87;0.80;;;;;;;10.37;100.00;97210.50;5095597;28;20583;-68
2022/01/04 00:04:04;;;;;;;1.40;0.80;;;;;;;10.31;100.00;97206.56;5097473;28;20213;-68
2022/01/04 00:06:31;;;;;;;1.00;0.90;;;;;;;10.32;100.00;97207.41;5097104;28;20590;-68
2022/01/04 00:09:01;;;;;;;2.17;1.00;;;;;;;10.32;100.00;97208.25;5103096;28;20207;-68
2022/01/04 00:11:42;;;;;;;1.40;1.13;;;;;;;10.35;100.00;97204.50;5108257;28;20218;-68
2022/01/04 00:14:09;;;;;;;1.53;0.93;;;;;;;10.31;100.00;97190.72;5111377;28;20244;-68
2022/01/04 00:16:35;;;;;;;1.53;0.90;;;;;;;10.28;100.00;97195.44;5111349;28;20215;-68
2022/01/04 00:19:03;;;;;;;1.03;0.90;;;;;;;10.29;100.00;97191.81;5110766;28;20577;-68
2022/01/04 00:21:30;;;;;;;1.37;0.83;;;;;;;10.27;100.00;97185.84;5107554;28;20224;-68
2022/01/04 00:23:56;;;;;;;1.60;0.97;;;;;;;10.24;100.00;97172.88;5110470;28;20220;-68
2022/01/04 00:26:23;;;;;;;0.80;0.73;;;;;;;10.22;100.00;97173.00;5110944;28;20598;-68
2022/01/04 00:28:49;;;;;;;0.93;0.83;;;;;;;10.17;100.00;97169.06;5110699;28;20339;-68
2022/01/04 00:31:16;;;;;;;1.90;0.97;;;;;;;10.22;100.00;97166.88;5106850;28;20245;-68
2022/01/04 00:33:42;;;;;;;1.20;0.90;;;;;;;10.19;100.00;97156.56;5108336;28;20243;-68
2022/01/04 00:36:10;;;;;;;1.00;0.87;;;;;;;10.20;100.00;97158.25;5110755;28;20588;-68
2022/01/04 00:38:37;;;;;;;1.47;1.20;;;;;;;10.21;100.00;97154.66;5110624;28;20668;-68
2022/01/04 00:41:03;;;;;;;1.00;0.90;;;;;;;10.19;100.00;97153.94;5099599;28;20708;-68
2022/01/04 00:43:30;;;;;;;1.93;1.00;;;;;;;10.28;100.00;97147.91;5099706;28;20214;-68
2022/01/04 00:45:56;;;;;;;2.20;0.80;;;;;;;10.31;100.00;97142.34;5098318;28;20241;-68
2022/01/04 00:51:09;;;;;;;1.40;0.90;;;;;;;10.40;100.00;97133.66;5100987;28;20234;-68
2022/01/04 00:53:37;;;;;;;1.07;0.70;;;;;;;10.48;100.00;97128.56;5098460;28;20582;-68
2022/01/04 00:56:03;;;;;;;0.90;0.80;;;;;;;10.53;100.00;97123.72;5098177;28;20233;-68
2022/01/04 00:58:30;;;;;;;1.10;0.97;;;;;;;10.48;100.00;97118.00;5098359;28;21644;-68
2022/01/04 01:00:57;;;;;;;1.27;0.90;;;;;;;10.53;100.00;97123.72;5099274;28;20220;-68
2022/01/04 01:03:23;;;;;;;1.27;0.80;;;;;;;10.49;100.00;97114.38;5098099;28;20216;-68
2022/01/04 01:05:50;;;;;;;1.33;0.70;;;;;;;10.40;100.00;97109.91;5098225;28;20713;-68
2022/01/04 01:08:16;;;;;;;1.10;0.80;;;;;;;10.44;100.00;97106.84;5097858;28;20676;-68
2022/01/04 01:10:47;;;;;;;1.67;0.90;;;;;;;10.45;100.00;97086.56;5098754;28;20211;-68
2022/01/04 01:13:15;;;;;;;1.23;0.90;;;;;;;10.42;100.00;97089.47;5098012;28;20226;-68
2022/01/04 01:15:44;;;;;;;1.37;0.90;;;;;;;10.42;100.00;97086.81;5097631;28;20228;-68
2022/01/04 01:18:12;;;;;;;1.63;0.80;;;;;;;10.39;100.00;97077.34;5098068;28;20218;-68
2022/01/04 01:20:39;;;;;;;0.73;0.73;;;;;;;10.38;100.00;97074.81;5097857;28;20214;-68
2022/01/04 01:23:05;;;;;;;1.30;0.83;;;;;;;10.36;100.00;97076.78;5097672;28;20219;-68
2022/01/04 01:25:33;;;;;;;1.87;1.03;;;;;;;10.28;100.00;97072.13;5096579;28;20719;-68
2022/01/04 01:28:00;;;;;;;1.23;0.90;;;;;;;10.22;100.00;97069.19;5098307;28;20210;-68
2022/01/04 01:30:28;;;;;;;1.63;0.90;;;;;;;10.20;100.00;97065.81;5097682;28;20241;-68
2022/01/04 01:32:55;;;;;;;1.23;0.70;;;;;;;10.23;100.00;97052.38;5097110;28;20244;-68
2022/01/04 01:35:21;;;;;;;0.93;0.80;;;;;;;10.19;100.00;97046.53;5097050;28;20676;-68
2022/01/04 01:37:48;;;;;;;1.90;0.90;;;;;;;10.19;100.00;97048.31;5098324;28;20665;-68
2022/01/04 01:40:15;;;;;;;1.07;0.83;;;;;;;10.14;100.00;97045.22;5098007;28;20215;-68
2022/01/04 01:42:41;;;;;;;0.90;0.90;;;;;;;10.20;100.00;97031.50;5097115;28;20206;-68
2022/01/04 01:45:13;;;;;;;1.10;1.00;;;;;;;10.18;100.00;97025.53;5096914;28;20233;-68
2022/01/04 01:47:41;;;;;;;2.77;0.97;;;;;;;10.21;100.00;97006.78;5098714;28;20243;-68
2022/01/04 01:50:08;;;;;;;1.40;1.07;;;;;;;10.21;100.00;97012.06;5097524;28;20627;-68
2022/01/04 01:52:35;;;;;;;1.93;1.13;;;;;;;10.19;100.00;97003.44;5095256;28;20215;-68
2022/01/04 01:55:01;;;;;;;2.33;1.07;;;;;;;10.14;100.00;96987.13;5096861;28;20215;-68
2022/01/04 01:57:28;;;;;;;1.80;0.80;;;;;;;10.13;100.00;96982.84;5097928;28;20565;-68
2022/01/04 01:59:55;;;;;;;1.17;0.87;;;;;;;9.99;100.00;96985.78;5097557;28;20222;-68
2022/01/04 02:02:23;;;;;;;1.17;0.90;;;;;;;9.99;100.00;96985.78;5096467;28;20694;-68
2022/01/04 02:04:49;;;;;;;0.87;0.87;;;;;;;10.01;100.00;96983.84;5096641;28;20582;-68
2022/01/04 02:07:17;;;;;;;1.37;1.07;;;;;;;10.02;100.00;96978.44;5097792;28;20579;-68
2022/01/04 02:09:51;;;;;;;1.20;0.90;;;;;;;10.06;100.00;96973.75;5101939;28;20207;-68
2022/01/04 02:12:18;;;;;;;1.20;1.10;;;;;;;10.11;100.00;96969.78;5096396;28;20753;-68
2022/01/04 02:14:49;;;;;;;1.00;0.90;;;;;;;10.15;100.00;96962.44;5096477;28;20211;-68
2022/01/04 02:17:15;;;;;;;1.17;1.00;;;;;;;10.16;100.00;96948.25;5098927;28;20221;-68
2022/01/04 02:19:43;;;;;;;1.27;1.00;;;;;;;10.12;100.00;96947.69;5105665;28;20216;-68
2022/01/04 02:22:10;;;;;;;1.70;1.30;;;;;;;10.13;100.00;96937.94;5108957;28;20214;-68
2022/01/04 02:24:36;;;;;;;1.10;1.00;;;;;;;10.16;100.00;96945.63;5108747;28;20217;-68
2022/01/04 02:27:03;;;;;;;1.30;1.07;;;;;;;10.18;100.00;96941.03;5106384;28;20241;-68
2022/01/04 02:29:30;;;;;;;1.20;1.07;;;;;;;10.17;100.00;96926.16;5105116;28;20244;-68
2022/01/04 02:31:56;;;;;;;0.90;0.90;;;;;;;10.18;100.00;96914.63;5108572;28;20238;-68
2022/01/04 02:34:23;;;;;;;1.00;0.90;;;;;;;10.19;100.00;96913.66;5108446;28;20216;-68
2022/01/04 02:36:51;;;;;;;1.27;1.10;;;;;;;10.18;100.00;96912.00;5107012;28;20218;-68
2022/01/04 02:39:17;;;;;;;1.73;1.20;;;;;;;10.16;100.00;96898.91;5105129;28;20578;-68
2022/01/04 02:41:43;;;;;;;1.80;1.23;;;;;;;10.13;100.00;96890.44;5108401;28;20239;-68
2022/01/04 02:44:10;;;;;;;2.07;1.20;;;;;;;10.16;100.00;96884.91;5106878;28;20240;-68
2022/01/04 02:46:36;;;;;;;1.43;1.33;;;;;;;10.18;100.00;96875.03;5107053;28;20230;-68
2022/01/04 02:49:03;;;;;;;1.77;1.40;;;;;;;10.18;100.00;96861.84;5104413;28;20698;-68
2022/01/04 02:51:29;;;;;;;1.10;1.00;;;;;;;10.22;100.00;96844.75;5108123;28;20211;-68
2022/01/04 02:53:57;;;;;;;1.30;1.10;;;;;;;10.24;100.00;96848.09;5108094;28;20218;-68
2022/01/04 02:56:24;;;;;;;2.53;1.30;;;;;;;10.19;100.00;96842.38;5107686;28;20211;-68
2022/01/04 02:58:50;;;;;;;1.90;1.30;;;;;;;10.19;100.00;96837.09;5104182;28;20215;-68
2022/01/04 03:01:17;;;;;;;1.53;1.20;;;;;;;10.23;100.00;96838.50;5107807;28;20217;-68
2022/01/04 03:03:43;;;;;;;1.80;1.57;;;;;;;10.23;100.00;96820.03;5108182;28;20210;-68
2022/01/04 03:06:14;;;;;;;1.47;1.37;;;;;;;10.17;100.00;96823.22;5107745;28;20238;-68
2022/01/04 03:08:40;;;;;;;2.10;1.50;;;;;;;10.21;100.00;96829.91;5106297;28;20237;-68
2022/01/04 03:11:08;;;;;;;1.50;1.20;;;;;;;10.30;100.00;96829.06;5094521;28;20798;-68
2022/01/04 03:13:35;;;;;;;2.57;1.50;;;;;;;10.27;100.00;96824.06;5095923;28;20245;-68
2022/01/04 03:16:01;;;;;;;2.40;1.43;;;;;;;10.25;100.00;96816.28;5095738;28;20221;-68
2022/01/04 03:18:28;;;;;;;1.93;1.73;;;;;;;10.18;100.00;96814.31;5097839;28;20207;-68
2022/01/04 03:20:54;;;;;;;3.17;2.40;;;;;;;10.14;100.00;96810.25;5096122;28;20270;-68
2022/01/04 03:23:21;;;;;;;1.70;1.60;;;;;;;10.10;100.00;96811.53;5095706;28;20215;-67
2022/01/04 03:25:47;;;;;;;1.30;1.20;;;;;;;10.04;100.00;96806.78;5095489;28;20719;-68
2022/01/04 03:28:18;;;;;;;1.57;1.40;;;;;;;10.01;100.00;96797.28;5097204;28;20591;-68
2022/01/04 03:30:44;;;;;;;1.80;1.23;;;;;;;9.93;100.00;96797.16;5096487;28;20249;-68
2022/01/04 03:33:11;;;;;;;2.20;1.30;;;;;;;9.84;100.00;96794.47;5095531;28;20214;-68
2022/01/04 03:35:37;;;;;;;2.60;1.60;;;;;;;9.74;100.00;96788.31;5104595;28;20573;-68
2022/01/04 03:38:04;;;;;;;1.63;1.47;;;;;;;9.73;100.00;96782.19;5096659;28;20214;-68
2022/01/04 03:40:31;;;;;;;1.73;1.40;;;;;;;9.72;100.00;96780.53;5096929;28;20206;-68
2022/01/04 03:42:57;;;;;;;2.07;1.50;;;;;;;9.72;100.00;96769.97;5099852;28;20215;-68
2022/01/04 03:45:25;;;;;;;1.40;1.30;;;;;;;9.75;100.00;96753.91;5099549;28;20218;-68
2022/01/04 03:47:52;;;;;;;1.50;1.37;;;;;;;9.77;100.00;96751.09;5100401;28;20214;-68
2022/01/04 03:50:18;;;;;;;1.97;1.40;;;;;;;9.81;100.00;96734.03;5101087;28;20626;-68
2022/01/04 03:52:44;;;;;;;1.80;1.50;;;;;;;9.80;100.00;96730.56;5099593;28;20216;-68
2022/01/04 03:55:11;;;;;;;2.20;1.50;;;;;;;9.83;100.00;96717.09;5099536;28;20224;-68
2022/01/04 03:57:37;;;;;;;1.60;1.50;;;;;;;9.86;100.00;96708.09;5100147;28;20577;-68
2022/01/04 04:00:06;;;;;;;1.37;1.27;;;;;;;9.80;100.00;96713.91;5101237;28;20217;-68
2022/01/04 04:02:34;;;;;;;2.37;1.30;;;;;;;9.82;100.00;96717.22;5097784;28;20221;-68
2022/01/04 04:05:00;;;;;;;1.50;1.13;;;;;;;9.87;100.00;96717.66;5099063;28;20217;-67
2022/01/04 04:07:27;;;;;;;1.20;1.10;;;;;;;9.90;100.00;96704.22;5099617;28;20238;-68
2022/01/04 04:09:53;;;;;;;1.20;1.10;;;;;;;9.94;100.00;96703.81;5106562;28;20219;-68
2022/01/04 04:12:20;;;;;;;1.30;1.20;;;;;;;9.98;100.00;96701.72;5111452;28;20209;-68
2022/01/04 04:14:47;;;;;;;1.10;1.00;;;;;;;10.01;100.00;96689.09;5111050;28;20218;-68
2022/01/04 04:17:14;;;;;;;1.90;1.00;;;;;;;10.03;100.00;96686.31;5108512;28;20252;-67
2022/01/04 04:19:41;;;;;;;1.80;1.03;;;;;;;10.03;100.00;96683.69;5108753;28;20222;-68
2022/01/04 04:22:08;;;;;;;1.10;1.00;;;;;;;10.00;100.00;96671.59;5111028;28;20714;-67
2022/01/04 04:24:34;;;;;;;1.57;1.00;;;;;;;10.11;100.00;96670.66;5111346;28;20214;-68
2022/01/04 04:27:01;;;;;;;1.20;0.90;;;;;;;10.05;100.00;96663.28;5109077;28;20233;-67
2022/01/04 04:29:27;;;;;;;2.27;1.20;;;;;;;10.04;100.00;96651.88;5106150;28;20219;-68
2022/01/04 04:31:54;;;;;;;0.80;0.80;;;;;;;10.13;100.00;96653.69;5110756;28;20663;-68
2022/01/04 04:34:20;;;;;;;1.67;1.00;;;;;;;10.08;100.00;96648.00;5110979;28;20219;-68
2022/01/04 04:36:48;;;;;;;1.90;1.00;;;;;;;10.15;100.00;96651.75;5109494;28;20214;-67
2022/01/04 04:39:14;;;;;;;1.17;1.00;;;;;;;10.17;100.00;96641.06;5107308;28;20213;-68
2022/01/04 04:41:41;;;;;;;1.20;0.93;;;;;;;10.19;100.00;96636.47;5110993;28;20211;-68
2022/01/04 04:44:07;;;;;;;1.53;1.00;;;;;;;10.17;100.00;96633.13;5110668;28;20214;-67
2022/01/04 04:46:34;;;;;;;1.23;1.00;;;;;;;10.18;100.00;96634.78;5109867;28;20243;-67
2022/01/04 04:49:01;;;;;;;1.97;1.03;;;;;;;10.18;100.00;96640.06;5106699;28;20668;-67
2022/01/04 04:51:27;;;;;;;0.80;0.70;;;;;;;10.20;100.00;96632.84;5109214;28;20582;-67
2022/01/04 04:53:55;;;;;;;1.47;1.03;;;;;;;10.19;100.00;96628.53;5096128;28;20224;-68
2022/01/04 04:56:21;;;;;;;1.20;0.90;;;;;;;10.18;100.00;96624.22;5098814;28;20221;-68
2022/01/04 04:58:48;;;;;;;0.83;0.83;;;;;;;10.15;100.00;96616.59;5099267;28;20216;-68
2022/01/04 05:01:14;;;;;;;1.10;0.90;;;;;;;10.13;100.00;96616.75;5097936;28;20218;-68
2022/01/04 05:03:41;;;;;;;0.77;0.77;;;;;;;10.15;100.00;96608.69;5097926;28;20218;-68
2022/01/04 05:06:07;;;;;;;1.33;0.83;;;;;;;10.16;100.00;96611.16;5097653;28;20695;-67
2022/01/04 05:08:34;;;;;;;1.53;1.00;;;;;;;10.13;100.00;96600.06;5101243;28;20210;-67
2022/01/04 05:11:02;;;;;;;0.90;0.90;;;;;;;10.14;100.00;96597.28;5098918;28;20217;-68
2022/01/04 05:13:28;;;;;;;1.30;1.07;;;;;;;10.16;100.00;96594.50;5097826;28;20240;-68
2022/01/04 05:15:55;;;;;;;1.13;0.90;;;;;;;10.13;100.00;96592.97;5098104;28;20213;-67
2022/01/04 05:18:21;;;;;;;0.83;0.80;;;;;;;10.15;100.00;96592.84;5099163;28;20207;-68
2022/01/04 05:20:48;;;;;;;1.00;0.90;;;;;;;10.13;100.00;96592.13;5097583;28;20221;-68
2022/01/04 05:23:14;;;;;;;1.53;1.00;;;;;;;10.12;100.00;96606.31;5097616;28;20680;-68
2022/01/04 05:25:41;;;;;;;0.90;0.90;;;;;;;10.08;100.00;96587.28;5097911;28;20586;-68
2022/01/04 05:28:09;;;;;;;1.63;1.00;;;;;;;10.06;100.00;96577.84;5098561;28;20583;-68
2022/01/04 05:30:35;;;;;;;1.33;1.10;;;;;;;10.04;100.00;96577.97;5098832;28;20241;-68
2022/01/04 05:33:02;;;;;;;1.20;1.10;;;;;;;10.08;100.00;96565.31;5097602;28;20221;-68
2022/01/04 05:35:28;;;;;;;1.73;1.07;;;;;;;10.04;100.00;96558.69;5097280;28;20209;-68
2022/01/04 05:37:55;;;;;;;2.13;0.90;;;;;;;10.10;100.00;96558.13;5097810;28;20228;-68
2022/01/04 05:40:21;;;;;;;0.90;0.90;;;;;;;10.10;100.00;96547.56;5099726;28;20206;-68
2022/01/04 05:42:48;;;;;;;1.17;0.93;;;;;;;10.04;100.00;96548.13;5097233;28;20206;-68
2022/01/04 05:45:16;;;;;;;1.27;1.00;;;;;;;10.04;100.00;96527.81;5097087;28;20206;-68
2022/01/04 05:47:42;;;;;;;1.87;1.00;;;;;;;10.07;100.00;96524.06;5095547;28;20605;-68
2022/01/04 05:50:09;;;;;;;1.23;0.90;;;;;;;10.11;100.00;96528.09;5099809;28;20215;-68
2022/01/04 05:52:35;;;;;;;1.60;1.10;;;;;;;10.01;100.00;96521.97;5097197;28;20570;-68
2022/01/04 05:55:02;;;;;;;1.17;0.90;;;;;;;9.99;100.00;96519.50;5097267;28;20214;-68
2022/01/04 05:57:29;;;;;;;1.47;1.00;;;;;;;9.99;100.00;96523.94;5097087;28;20222;-68
2022/01/04 05:59:57;;;;;;;1.10;1.00;;;;;;;9.97;100.00;96513.50;5099685;28;20213;-68
2022/01/04 06:02:25;;;;;;;0.97;0.83;;;;;;;10.00;100.00;96515.88;5097049;28;20268;-68
2022/01/04 06:04:52;;;;;;;2.10;1.30;;;;;;;10.07;100.00;96514.38;5100788;28;20214;-68
2022/01/04 06:07:19;;;;;;;1.13;1.03;;;;;;;10.06;100.00;96507.44;5100491;28;20246;-68
2022/01/04 06:09:48;;;;;;;1.77;1.17;;;;;;;10.10;100.00;96505.31;5100982;28;20210;-68
2022/01/04 06:15:10;;;;;;;1.10;1.00;;;;;;;10.03;100.00;96486.56;5070716;28;20259;-68
2022/01/04 06:17:41;;;;;;;1.97;1.10;;;;;;;10.06;100.00;96488.94;5105762;28;20225;-67
2022/01/04 06:20:09;;;;;;;1.60;1.13;;;;;;;10.06;100.00;96483.66;5109105;28;20210;-68
2022/01/04 06:22:37;;;;;;;1.10;1.00;;;;;;;10.06;100.00;96485.47;5108677;28;20211;-67
2022/01/04 06:25:05;;;;;;;1.10;1.00;;;;;;;10.08;100.00;96478.22;5106121;28;20245;-67
2022/01/04 06:27:32;;;;;;;1.17;0.93;;;;;;;10.10;100.00;96468.38;5106581;28;20600;-67
2022/01/04 06:29:59;;;;;;;1.03;0.93;;;;;;;10.11;100.00;96472.69;5108509;28;20244;-68
2022/01/04 06:32:25;;;;;;;1.33;1.00;;;;;;;10.14;100.00;96465.31;5108528;28;20606;-68
2022/01/04 06:34:53;;;;;;;1.10;1.00;;;;;;;10.13;100.00;96457.53;5106512;28;20210;-68
2022/01/04 06:37:20;;;;;;;1.80;1.10;;;;;;;10.13;100.00;96452.25;5105702;28;20234;-67
2022/01/04 06:39:46;;;;;;;1.23;1.03;;;;;;;10.10;100.00;96452.53;5106691;28;20225;-68
2022/01/04 06:42:13;;;;;;;1.40;1.30;;;;;;;10.06;100.00;96454.63;5108639;28;20217;-67
2022/01/04 06:44:43;;;;;;;1.03;0.93;;;;;;;10.09;100.00;96442.97;5106741;28;20211;-68
2022/01/04 06:47:10;;;;;;;1.63;1.20;;;;;;;10.07;100.00;96439.63;5099053;28;20238;-68
2022/01/04 06:49:37;;;;;;;1.20;1.10;;;;;;;10.12;100.00;96435.59;5096196;28;20229;-68
2022/01/04 06:52:05;;;;;;;1.43;1.03;;;;;;;10.12;100.00;96438.22;5096265;28;20277;-68
2022/01/04 06:54:32;;;;;;;1.10;1.00;;;;;;;10.15;100.00;96430.00;5096224;28;20210;-68
2022/01/04 06:56:58;;;;;;;1.40;1.03;;;;;;;10.13;100.00;96431.13;5098904;28;20214;-68
2022/01/04 06:59:25;;;;;;;1.70;1.23;;;;;;;10.10;100.00;96431.44;5096163;28;20215;-68
2022/01/04 07:01:51;;;;;;;1.93;1.33;;;;;;;10.12;100.00;96434.75;5095777;28;20702;-68
2022/01/04 07:04:18;;;;;;;2.17;1.20;;;;;;;10.10;100.00;96432.25;5094422;28;20214;-68
2022/01/04 07:06:44;;;;;;;0.97;0.97;;;;;;;10.16;100.00;96426.38;5098502;28;20245;-68
2022/01/04 07:09:12;;;;;;;1.17;1.00;;;;;;;10.13;100.00;96421.41;5093016;28;20212;-68
2022/01/04 07:11:39;;;;;;;1.57;1.10;;;;;;;10.17;100.00;96416.66;5095509;28;20211;-68
2022/01/04 07:14:05;;;;;;;1.07;1.00;;;;;;;10.19;100.00;96414.72;5096604;28;20674;-68
2022/01/04 07:16:32;;;;;;;1.87;0.77;;;;;;;10.22;100.00;96409.97;5095550;28;20220;-68
2022/01/04 07:18:58;;;;;;;1.20;1.10;;;;;;;10.24;100.00;96412.47;5095663;28;20214;-68
2022/01/04 07:21:25;;;;;;;1.40;1.00;;;;;;;10.25;100.00;96406.19;5100040;28;20214;-67
2022/01/04 07:23:54;;;;;;;1.20;1.00;;;;;;;10.26;100.00;96399.94;5096007;28;20211;-67
2022/01/04 07:26:23;;;;;;;1.40;1.10;;;;;;;10.27;100.00;96397.16;5096296;28;20215;-67
2022/01/04 07:28:50;;;;;;;1.43;1.10;;;;;;;10.26;100.00;96395.50;5095444;28;20220;-67
2022/01/04 07:31:17;;;;;;;1.77;1.00;;;;;;;10.28;100.00;96390.09;5093458;28;20307;-67
2022/01/04 07:33:45;;;;;;;1.10;0.90;;;;;;;10.28;100.00;96392.72;5096638;28;20213;-67
2022/01/04 07:36:12;;;;;;;1.90;1.20;;;;;;;10.24;100.00;96391.34;5096439;28;20274;-67
2022/01/04 07:38:39;;;;;;;1.60;1.33;;;;;;;10.24;100.00;96389.56;5095564;28;20212;-67
2022/01/04 07:41:06;;;;;;;1.07;0.90;;;;;;;10.26;100.00;96390.22;5095315;28;20217;-67
2022/01/04 07:43:34;;;;;;;1.07;0.97;;;;;;;10.27;100.00;96377.88;5096071;28;20215;-67
2022/01/04 07:46:01;;;;;;;1.07;1.00;;;;;;;10.26;100.00;96376.19;5096384;28;20240;-67
2022/01/04 07:48:27;;;;;;;1.20;1.00;;;;;;;10.27;100.00;96376.03;5095387;28;20242;-67
2022/01/04 07:50:55;;;;;;;1.47;1.00;;;;;;;10.27;100.00;96369.94;5095388;28;20211;-68
2022/01/04 07:53:23;;;;;;;1.00;0.90;;;;;;;10.28;100.00;96363.69;5096228;28;20272;-68
2022/01/04 07:55:50;;;;;;;1.20;1.10;;;;;;;10.35;100.00;96346.28;5094872;28;20267;-67
2022/01/04 07:58:16;;;;;;;1.00;0.90;;;;;;;10.32;100.00;96342.13;5095071;28;20214;-68
2022/01/04 08:00:44;;;;;;;0.80;0.80;;;;;;;10.32;100.00;96346.56;5095067;28;20215;-67
2022/01/04 08:03:10;;;;;;;1.67;1.10;;;;;;;10.36;100.00;96342.66;5095920;28;20221;-67
2022/01/04 08:05:37;;;;;;;1.40;1.00;;;;;;;10.36;100.00;96342.66;5096696;28;20236;-67
2022/01/04 08:08:04;;;;;;;1.70;0.90;;;;;;;10.35;100.00;96339.16;5095001;28;20235;-67
2022/01/04 08:10:31;;;;;;;1.27;1.00;;;;;;;10.40;100.00;96329.00;5105578;28;20217;-67
2022/01/04 08:12:57;;;;;;;2.70;1.03;;;;;;;10.45;100.00;96331.22;5107028;28;20206;-67
2022/01/04 08:15:25;;;;;;;1.93;1.07;;;;;;;10.47;100.00;96337.97;5103743;28;20213;-67
2022/01/04 08:17:53;;;;;;;1.17;1.07;;;;;;;10.49;100.00;96337.84;5106897;28;20218;-67
2022/01/04 08:20:20;;;;;;;1.43;0.93;;;;;;;10.58;100.00;96342.25;5107267;28;20217;-67
2022/01/04 08:22:46;;;;;;;1.40;0.97;;;;;;;10.67;100.00;96338.69;5105891;28;20239;-67
2022/01/04 08:25:13;;;;;;;2.17;0.90;;;;;;;10.71;100.00;96337.41;5103661;28;20207;-67
2022/01/04 08:27:40;;;;;;;1.33;0.83;;;;;;;10.70;100.00;96333.13;5107836;28;20305;-67
2022/01/04 08:30:09;;;;;;;2.33;0.87;;;;;;;10.69;100.00;96328.78;5111057;28;20235;-67
2022/01/04 08:32:37;;;;;;;1.80;0.87;;;;;;;10.74;100.00;96329.19;5111077;28;20209;-67
2022/01/04 08:35:06;;;;;;;1.27;1.00;;;;;;;10.72;100.00;96328.50;5103949;28;20214;-67
2022/01/04 08:37:33;;;;;;;2.60;0.90;;;;;;;10.73;100.00;96327.53;5098548;28;20230;-67
2022/01/04 08:39:59;;;;;;;1.00;0.80;;;;;;;10.75;100.00;96333.47;5098491;28;20279;-67
2022/01/04 08:42:26;;;;;;;0.97;0.70;;;;;;;10.76;100.00;96329.88;5098340;28;20587;-67
2022/01/04 08:44:55;;;;;;;1.80;0.80;;;;;;;10.80;100.00;96320.66;5100153;28;20224;-67
2022/01/04 08:47:22;;;;;;;1.03;0.90;;;;;;;10.85;100.00;96308.66;5099121;28;20237;-67
2022/01/04 08:49:49;;;;;;;1.07;0.87;;;;;;;10.89;100.00;96299.44;5093349;28;20683;-67
2022/01/04 08:52:16;;;;;;;0.70;0.70;;;;;;;10.93;100.00;96289.38;5097130;28;20219;-67
2022/01/04 08:54:43;;;;;;;1.37;0.90;;;;;;;10.95;100.00;96290.09;5098675;28;20223;-67
2022/01/04 08:57:10;;;;;;;2.10;0.80;;;;;;;10.96;100.00;96289.09;5098729;28;20229;-66
2022/01/04 08:59:36;;;;;;;2.23;1.00;;;;;;;10.98;100.00;96302.97;5098418;28;20217;-67
2022/01/04 09:02:03;;;;;;;1.30;0.90;;;;;;;11.04;100.00;96297.06;5098303;28;20221;-67
2022/01/04 09:04:30;;;;;;;1.47;0.83;;;;;;;11.10;100.00;96291.19;5098988;28;20212;-67
2022/01/04 09:06:56;;;;;;;1.43;0.77;;;;;;;11.17;100.00;96287.78;5099709;28;20222;-66
2022/01/04 09:09:24;;;;;;;1.00;0.90;;;;;;;11.25;100.00;96289.66;5095277;28;20207;-67
2022/01/04 09:11:51;;;;;;;3.10;1.00;;;;;;;11.23;100.00;96275.75;5097734;28;20218;-67
2022/01/04 09:14:28;;;;;;;1.63;0.83;;;;;;;11.21;100.00;96285.66;5098255;28;20214;-67
2022/01/04 09:19:39;;;;;;;1.03;0.87;;;;;;;11.23;100.00;96270.44;5097540;28;20343;-67
2022/01/04 09:22:06;;;;;;;1.57;0.80;;;;;;;11.18;100.00;96270.09;5099871;28;20580;-67
2022/01/04 09:24:35;;;;;;;1.83;0.90;;;;;;;11.13;100.00;96269.75;5097655;28;20217;-67
2022/01/04 09:27:05;;;;;;;2.33;1.07;;;;;;;11.11;100.00;96269.03;5100851;28;20219;-67
2022/01/04 09:29:32;;;;;;;1.30;0.90;;;;;;;11.13;100.00;96269.75;5095995;28;20213;-67
2022/01/04 09:32:00;;;;;;;0.97;0.80;;;;;;;11.11;100.00;96255.81;5096873;28;20221;-67
2022/01/04 09:34:27;;;;;;;1.70;0.80;;;;;;;11.15;100.00;96238.69;5098017;28;20221;-67
2022/01/04 09:36:53;;;;;;;1.00;0.90;;;;;;;11.18;100.00;96241.03;5096083;28;20219;-67
2022/01/04 09:39:22;;;;;;;1.77;0.97;;;;;;;11.18;100.00;96241.03;5095338;28;20211;-67
2022/01/04 09:41:51;;;;;;;2.30;0.70;;;;;;;11.19;100.00;96234.75;5095236;28;20222;-67
2022/01/04 09:44:18;;;;;;;1.23;1.00;;;;;;;11.20;100.00;96228.47;5097585;28;20209;-67
2022/01/04 09:46:44;;;;;;;1.13;0.80;;;;;;;11.24;100.00;96229.78;5096079;28;20226;-67
2022/01/04 09:49:14;;;;;;;1.30;1.00;;;;;;;11.19;100.00;96243.50;5095713;28;20599;-67
2022/01/04 09:51:42;;;;;;;1.10;0.80;;;;;;;11.21;100.00;96253.91;5097871;28;20214;-67
2022/01/04 09:54:08;;;;;;;1.13;0.70;;;;;;;11.24;100.00;96251.78;5095648;28;20211;-67
2022/01/04 09:56:35;;;;;;;0.90;0.90;;;;;;;11.18;100.00;96251.59;5095337;28;20214;-67
2022/01/04 09:59:03;;;;;;;1.03;0.87;;;;;;;11.17;100.00;96255.22;5095541;28;20236;-67
2022/01/04 10:01:35;;;;;;;1.53;0.87;;;;;;;11.23;100.00;96254.59;5097935;28;20205;-67
2022/01/04 10:04:02;;;;;;;1.53;0.83;;;;;;;11.22;100.00;96242.34;5095378;28;20222;-67
2022/01/04 10:06:29;;;;;;;1.93;1.00;;;;;;;11.26;100.00;96249.00;5094260;28;20214;-67
2022/01/04 10:08:57;;;;;;;1.03;0.80;;;;;;;11.26;100.00;96238.44;5099852;28;20239;-67
2022/01/04 10:11:32;;;;;;;1.53;1.07;;;;;;;11.27;100.00;96237.44;5097196;28;20219;-67
2022/01/04 10:13:59;;;;;;;1.27;0.90;;;;;;;11.32;100.00;96235.97;5095733;28;20214;-67
2022/01/04 10:16:28;;;;;;;1.30;1.03;;;;;;;11.31;100.00;96231.66;5095689;28;20235;-67
2022/01/04 10:18:54;;;;;;;1.00;0.80;;;;;;;11.32;100.00;96216.66;5095625;28;20218;-67
2022/01/04 10:21:21;;;;;;;1.47;1.00;;;;;;;11.37;100.00;96219.66;5097924;28;20240;-67
2022/01/04 10:23:51;;;;;;;2.43;1.50;;;;;;;11.37;100.00;96219.66;5095418;28;20239;-67
2022/01/04 10:26:28;;;;;;;1.10;0.90;;;;;;;11.40;100.00;96206.09;5095445;28;20207;-67
2022/01/04 10:28:54;;;;;;;2.23;1.10;;;;;;;11.47;100.00;96204.47;5095063;28;20243;-67
2022/01/04 10:31:21;;;;;;;1.33;0.83;;;;;;;11.44;100.00;96215.41;5104350;28;20237;-67
2022/01/04 10:33:52;;;;;;;1.03;0.80;;;;;;;11.42;100.00;96204.97;5105689;28;20218;-67
2022/01/04 10:36:21;;;;;;;1.37;1.00;;;;;;;11.44;100.00;96196.88;5107713;28;20221;-67
2022/01/04 10:38:48;;;;;;;1.00;0.90;;;;;;;11.47;100.00;96185.97;5106870;28;20206;-67
2022/01/04 10:41:21;;;;;;;1.17;1.00;;;;;;;11.55;100.00;96192.13;5104930;28;20219;-69
2022/01/04 10:43:50;;;;;;;1.20;1.10;;;;;;;11.62;100.00;96192.38;5106941;28;20275;-68
2022/01/04 10:46:19;;;;;;;2.00;1.00;;;;;;;11.64;100.00;96185.09;5106739;28;20301;-69
2022/01/04 10:48:47;;;;;;;1.23;0.90;;;;;;;11.65;100.00;96174.34;5096159;28;20248;-67
2022/01/04 10:51:16;;;;;;;1.87;1.17;;;;;;;11.70;100.00;96182.66;5095573;28;20216;-69
2022/01/04 10:53:44;;;;;;;2.23;1.20;;;;;;;11.69;100.00;96193.38;5095002;28;20233;-68
2022/01/04 10:56:12;;;;;;;1.90;1.43;;;;;;;11.65;100.00;96195.53;5094970;28;20212;-67
2022/01/04 10:58:41;;;;;;;2.77;1.20;;;;;;;11.63;100.00;96188.72;5096561;28;20678;-67
2022/01/04 11:01:10;;;;;;;1.87;1.07;;;;;;;11.58;100.00;96186.56;5093378;28;20214;-67
2022/01/04 11:03:38;;;;;;;1.67;1.20;;;;;;;11.60;100.00;96186.38;5094868;28;20216;-68
2022/01/04 11:06:11;;;;;;;1.40;1.13;;;;;;;11.63;100.00;96178.13;5095790;28;20366;-68
2022/01/04 11:08:40;;;;;;;1.63;1.13;;;;;;;11.62;100.00;96179.13;5095143;28;20234;-67
2022/01/04 11:11:07;;;;;;;1.50;1.10;;;;;;;11.66;100.00;96172.53;5094102;28;20221;-68
2022/01/04 11:13:34;;;;;;;1.17;0.90;;;;;;;11.66;100.00;96178.66;5094147;28;20238;-70
2022/01/04 11:16:01;;;;;;;1.67;1.10;;;;;;;11.72;100.00;96187.75;5095719;28;20213;-68
2022/01/04 11:18:29;;;;;;;1.93;1.30;;;;;;;11.76;100.00;96189.94;5094681;28;20219;-67
2022/01/04 11:20:56;;;;;;;1.20;1.03;;;;;;;11.79;100.00;96196.75;5094226;28;20596;-68
2022/01/04 11:23:25;;;;;;;1.23;1.07;;;;;;;11.78;100.00;96195.06;5094393;28;20238;-69
2022/01/04 11:25:53;;;;;;;1.77;1.33;;;;;;;11.74;100.00;96185.78;5095604;28;20208;-69
2022/01/04 11:28:21;;;;;;;1.57;1.10;;;;;;;11.70;100.00;96184.44;5093283;28;20305;-69
2022/01/04 11:30:58;;;;;;;2.13;1.50;;;;;;;11.68;100.00;96179.31;5093682;28;20726;-68
2022/01/04 11:33:28;;;;;;;1.83;1.20;;;;;;;11.68;100.00;96167.91;5093861;28;20217;-69
2022/01/04 11:35:56;;;;;;;1.40;1.10;;;;;;;11.71;100.00;96168.41;5096624;28;20217;-69